Main page
METAR-TAF:

METAR-TAF

Airports :

Skylark Field

Killeen, Texas, United States

latitude: 31-05N, longitude: 097-41W, elevation: 846 ft

Current weather observation

The report was made 30 minutes ago, at 13:18 UTC
Wind 10 mph from the South/Southeast
Temperature 75°F
Humidity 94%
Pressure 29.85 in. Hg
Visibility: 7 miles
Broken clouds at a height of 900 ft
Overcast at a height of 1400 ft

METAR: KILE 201318Z AUTO 15009KT 7SM BKN009 OVC014 24/23 A2985 RMK AO2 CIG 008V012

Time: 08:48 (13:48 UTC)


TAF: missing

Weather observations and forecasts of more than 4000 airports (METAR and TAF reports).

The available stations are represented by yellow and red dots on the map.

Hover mouse over dot to see the name of the station.

Then click to see weather observations and forecasts.

To change the map : click on the green buttons with a black cross to zoom in, on the green button with a dash to zoom out, or on the green arrows for adjacent maps.


METAR-TAF: